sensor_id;sensor_type;location;lat;lon;timestamp;pressure;altitude;pressure_sealevel;temperature;humidity
75913;BME280;64592;52.168;21.040;2022-12-29T00:02:28;100208.44;;;5.02;73.12
75913;BME280;64592;52.168;21.040;2022-12-29T00:07:31;100206.50;;;5.04;73.23
75913;BME280;64592;52.168;21.040;2022-12-29T00:12:33;100210.16;;;5.03;72.90
75913;BME280;64592;52.168;21.040;2022-12-29T00:17:48;100202.03;;;5.04;72.40
75913;BME280;64592;52.168;21.040;2022-12-29T00:22:51;100193.00;;;5.07;72.06
75913;BME280;64592;52.168;21.040;2022-12-29T00:28:11;100196.63;;;5.06;72.89
75913;BME280;64592;52.168;21.040;2022-12-29T00:33:31;100197.56;;;5.05;72.52
75913;BME280;64592;52.168;21.040;2022-12-29T00:38:55;100205.50;;;5.06;72.65
75913;BME280;64592;52.168;21.040;2022-12-29T00:44:27;100218.94;;;5.05;72.65
75913;BME280;64592;52.168;21.040;2022-12-29T00:49:29;100214.38;;;5.07;72.07
75913;BME280;64592;52.168;21.040;2022-12-29T00:54:36;100208.34;;;5.03;72.93
75913;BME280;64592;52.168;21.040;2022-12-29T00:59:39;100201.16;;;5.04;72.68
75913;BME280;64592;52.168;21.040;2022-12-29T01:04:41;100203.97;;;5.02;73.10
75913;BME280;64592;52.168;21.040;2022-12-29T01:09:44;100200.34;;;5.03;72.73
75913;BME280;64592;52.168;21.040;2022-12-29T01:15:04;100181.72;;;5.02;72.14
75913;BME280;64592;52.168;21.040;2022-12-29T01:20:06;100183.34;;;5.04;71.78
75913;BME280;64592;52.168;21.040;2022-12-29T01:25:10;100178.97;;;5.03;71.73
75913;BME280;64592;52.168;21.040;2022-12-29T01:30:12;100179.81;;;5.04;71.69
75913;BME280;64592;52.168;21.040;2022-12-29T01:35:14;100160.34;;;5.02;72.06
75913;BME280;64592;52.168;21.040;2022-12-29T01:40:17;100155.75;;;5.04;71.75
75913;BME280;64592;52.168;21.040;2022-12-29T01:45:19;100134.50;;;5.02;72.33
75913;BME280;64592;52.168;21.040;2022-12-29T01:50:24;100139.84;;;5.02;71.89
75913;BME280;64592;52.168;21.040;2022-12-29T01:55:33;100143.28;;;5.04;71.26
75913;BME280;64592;52.168;21.040;2022-12-29T02:00:36;100138.97;;;5.02;71.63
75913;BME280;64592;52.168;21.040;2022-12-29T02:05:42;100128.31;;;5.02;71.39
75913;BME280;64592;52.168;21.040;2022-12-29T02:10:47;100123.81;;;5.02;70.67
75913;BME280;64592;52.168;21.040;2022-12-29T02:15:58;100127.25;;;5.04;70.94
75913;BME280;64592;52.168;21.040;2022-12-29T02:21:24;100117.63;;;5.02;71.98
75913;BME280;64592;52.168;21.040;2022-12-29T02:26:49;100123.81;;;5.02;71.67
75913;BME280;64592;52.168;21.040;2022-12-29T02:32:02;100124.91;;;4.98;72.35
75913;BME280;64592;52.168;21.040;2022-12-29T02:37:07;100131.06;;;5.00;71.80
75913;BME280;64592;52.168;21.040;2022-12-29T02:42:14;100135.69;;;4.97;72.58
75913;BME280;64592;52.168;21.040;2022-12-29T02:47:28;100144.84;;;4.93;72.92
75913;BME280;64592;52.168;21.040;2022-12-29T02:52:34;100136.03;;;4.91;74.12
75913;BME280;64592;52.168;21.040;2022-12-29T02:57:38;100145.19;;;4.87;74.40
75913;BME280;64592;52.168;21.040;2022-12-29T03:02:52;100146.38;;;4.81;75.02
75913;BME280;64592;52.168;21.040;2022-12-29T03:08:04;100149.28;;;4.77;76.25
75913;BME280;64592;52.168;21.040;2022-12-29T03:13:13;100142.41;;;4.73;77.24
75913;BME280;64592;52.168;21.040;2022-12-29T03:18:41;100149.97;;;4.64;78.31
75913;BME280;64592;52.168;21.040;2022-12-29T03:23:49;100135.16;;;4.59;79.13
75913;BME280;64592;52.168;21.040;2022-12-29T03:28:53;100127.56;;;4.51;79.22
75913;BME280;64592;52.168;21.040;2022-12-29T03:33:58;100100.31;;;4.45;79.81
75913;BME280;64592;52.168;21.040;2022-12-29T03:39:03;100111.09;;;4.43;80.11
75913;BME280;64592;52.168;21.040;2022-12-29T03:44:07;100086.22;;;4.43;80.02
75913;BME280;64592;52.168;21.040;2022-12-29T03:49:10;100050.75;;;4.41;80.66
75913;BME280;64592;52.168;21.040;2022-12-29T03:54:12;100057.09;;;4.38;80.80
75913;BME280;64592;52.168;21.040;2022-12-29T03:59:13;100083.44;;;4.28;80.98
75913;BME280;64592;52.168;21.040;2022-12-29T04:04:16;100064.94;;;4.25;80.49
75913;BME280;64592;52.168;21.040;2022-12-29T04:09:18;100058.91;;;4.22;81.15
75913;BME280;64592;52.168;21.040;2022-12-29T04:14:20;100056.66;;;4.14;81.07
75913;BME280;64592;52.168;21.040;2022-12-29T04:19:23;100061.44;;;4.08;81.75
75913;BME280;64592;52.168;21.040;2022-12-29T04:24:25;100058.75;;;4.08;80.87
75913;BME280;64592;52.168;21.040;2022-12-29T04:29:26;100062.41;;;4.07;80.94
75913;BME280;64592;52.168;21.040;2022-12-29T04:34:29;100065.16;;;4.05;81.20
75913;BME280;64592;52.168;21.040;2022-12-29T04:39:31;100062.56;;;4.04;80.61
75913;BME280;64592;52.168;21.040;2022-12-29T04:44:34;100026.00;;;4.06;80.83
75913;BME280;64592;52.168;21.040;2022-12-29T04:49:37;100032.63;;;3.99;81.11
75913;BME280;64592;52.168;21.040;2022-12-29T04:54:39;100045.16;;;3.97;80.04
75913;BME280;64592;52.168;21.040;2022-12-29T04:59:41;100029.00;;;4.00;79.18
75913;BME280;64592;52.168;21.040;2022-12-29T05:04:44;100020.38;;;3.95;78.53
75913;BME280;64592;52.168;21.040;2022-12-29T05:09:46;100009.03;;;3.91;78.32
75913;BME280;64592;52.168;21.040;2022-12-29T05:14:47;100015.03;;;3.95;78.10
75913;BME280;64592;52.168;21.040;2022-12-29T05:19:50;100008.16;;;3.90;78.18
75913;BME280;64592;52.168;21.040;2022-12-29T05:24:52;100015.38;;;3.88;77.34
75913;BME280;64592;52.168;21.040;2022-12-29T05:29:54;100005.56;;;3.89;77.57
75913;BME280;64592;52.168;21.040;2022-12-29T05:34:57;100005.50;;;3.90;77.28
75913;BME280;64592;52.168;21.040;2022-12-29T05:39:59;99990.44;;;3.89;76.32
75913;BME280;64592;52.168;21.040;2022-12-29T05:45:00;99962.66;;;3.94;76.34
75913;BME280;64592;52.168;21.040;2022-12-29T05:50:04;99979.53;;;3.94;74.98
75913;BME280;64592;52.168;21.040;2022-12-29T05:55:06;99976.00;;;3.94;75.53
75913;BME280;64592;52.168;21.040;2022-12-29T06:00:09;99984.78;;;3.96;74.74
75913;BME280;64592;52.168;21.040;2022-12-29T06:05:13;99990.97;;;3.96;75.10
75913;BME280;64592;52.168;21.040;2022-12-29T06:10:14;99993.56;;;3.98;75.10
75913;BME280;64592;52.168;21.040;2022-12-29T06:15:16;99992.44;;;4.02;73.87
75913;BME280;64592;52.168;21.040;2022-12-29T06:20:20;99980.81;;;4.03;73.89
75913;BME280;64592;52.168;21.040;2022-12-29T06:25:21;99999.16;;;4.09;73.51
75913;BME280;64592;52.168;21.040;2022-12-29T06:30:23;99984.81;;;4.11;73.09
75913;BME280;64592;52.168;21.040;2022-12-29T06:35:26;99990.72;;;4.16;72.48
75913;BME280;64592;52.168;21.040;2022-12-29T06:40:28;99979.13;;;4.17;73.55
75913;BME280;64592;52.168;21.040;2022-12-29T06:45:30;99989.72;;;4.19;74.20
75913;BME280;64592;52.168;21.040;2022-12-29T06:50:33;99999.97;;;4.26;73.23
75913;BME280;64592;52.168;21.040;2022-12-29T06:55:35;99997.22;;;4.28;73.32
75913;BME280;64592;52.168;21.040;2022-12-29T07:00:36;100002.47;;;4.29;72.41
75913;BME280;64592;52.168;21.040;2022-12-29T07:05:39;100003.06;;;4.35;71.65
75913;BME280;64592;52.168;21.040;2022-12-29T07:10:41;99988.59;;;4.39;72.27
75913;BME280;64592;52.168;21.040;2022-12-29T07:15:43;99977.84;;;4.40;71.60
75913;BME280;64592;52.168;21.040;2022-12-29T07:20:46;99975.97;;;4.42;71.87
75913;BME280;64592;52.168;21.040;2022-12-29T07:25:48;99983.78;;;4.45;71.39
75913;BME280;64592;52.168;21.040;2022-12-29T07:30:49;99981.09;;;4.45;71.51
75913;BME280;64592;52.168;21.040;2022-12-29T07:35:52;99978.28;;;4.48;71.16
75913;BME280;64592;52.168;21.040;2022-12-29T07:40:57;99985.16;;;4.52;70.82
75913;BME280;64592;52.168;21.040;2022-12-29T07:45:58;99977.91;;;4.54;71.18
75913;BME280;64592;52.168;21.040;2022-12-29T07:51:02;99975.00;;;4.59;70.85
75913;BME280;64592;52.168;21.040;2022-12-29T07:56:04;99973.94;;;4.61;71.08
75913;BME280;64592;52.168;21.040;2022-12-29T08:01:06;99971.19;;;4.63;70.61
75913;BME280;64592;52.168;21.040;2022-12-29T08:06:10;99969.97;;;4.68;70.90
75913;BME280;64592;52.168;21.040;2022-12-29T08:11:12;99956.97;;;4.78;69.46
75913;BME280;64592;52.168;21.040;2022-12-29T08:16:14;99955.94;;;4.81;69.58
75913;BME280;64592;52.168;21.040;2022-12-29T08:21:17;99950.25;;;4.87;69.17
75913;BME280;64592;52.168;21.040;2022-12-29T08:26:18;99948.94;;;4.94;69.62
75913;BME280;64592;52.168;21.040;2022-12-29T08:31:20;99945.09;;;4.98;68.38
75913;BME280;64592;52.168;21.040;2022-12-29T08:36:23;99952.88;;;5.02;68.71
75913;BME280;64592;52.168;21.040;2022-12-29T08:41:25;99952.50;;;5.08;67.96
75913;BME280;64592;52.168;21.040;2022-12-29T08:46:26;99967.13;;;5.17;68.71
75913;BME280;64592;52.168;21.040;2022-12-29T08:51:29;99974.69;;;5.25;67.32
75913;BME280;64592;52.168;21.040;2022-12-29T08:56:31;99981.38;;;5.32;67.82
75913;BME280;64592;52.168;21.040;2022-12-29T09:01:33;99966.94;;;5.34;68.63
75913;BME280;64592;52.168;21.040;2022-12-29T09:06:38;99976.31;;;5.41;67.44
75913;BME280;64592;52.168;21.040;2022-12-29T09:11:39;99958.38;;;5.43;67.40
75913;BME280;64592;52.168;21.040;2022-12-29T09:16:41;99956.19;;;5.50;67.32
75913;BME280;64592;52.168;21.040;2022-12-29T09:22:02;99961.28;;;5.55;67.52
75913;BME280;64592;52.168;21.040;2022-12-29T09:27:04;99953.81;;;5.60;66.71
75913;BME280;64592;52.168;21.040;2022-12-29T09:32:06;99950.97;;;5.63;67.16
75913;BME280;64592;52.168;21.040;2022-12-29T09:37:09;99949.81;;;5.67;66.48
75913;BME280;64592;52.168;21.040;2022-12-29T09:42:18;99946.75;;;5.73;67.04
75913;BME280;64592;52.168;21.040;2022-12-29T09:47:22;99945.63;;;5.77;67.28
75913;BME280;64592;52.168;21.040;2022-12-29T09:52:29;99933.88;;;5.79;66.73
75913;BME280;64592;52.168;21.040;2022-12-29T09:57:36;99928.25;;;5.84;67.12
75913;BME280;64592;52.168;21.040;2022-12-29T10:02:42;99925.34;;;5.87;66.89
75913;BME280;64592;52.168;21.040;2022-12-29T10:07:52;99930.47;;;5.92;66.81
75913;BME280;64592;52.168;21.040;2022-12-29T10:13:05;99913.47;;;5.93;67.04
75913;BME280;64592;52.168;21.040;2022-12-29T10:18:20;99909.72;;;5.95;67.32
75913;BME280;64592;52.168;21.040;2022-12-29T10:23:33;99901.69;;;5.95;66.93
75913;BME280;64592;52.168;21.040;2022-12-29T10:28:40;99901.50;;;5.98;66.42
75913;BME280;64592;52.168;21.040;2022-12-29T10:33:43;99893.41;;;6.00;67.16
75913;BME280;64592;52.168;21.040;2022-12-29T10:38:57;99902.63;;;6.08;66.32
75913;BME280;64592;52.168;21.040;2022-12-29T10:44:03;99902.44;;;6.11;66.23
75913;BME280;64592;52.168;21.040;2022-12-29T10:49:06;99886.19;;;6.14;66.55
75913;BME280;64592;52.168;21.040;2022-12-29T10:54:19;99884.63;;;6.24;65.97
75913;BME280;64592;52.168;21.040;2022-12-29T10:59:25;99874.50;;;6.30;64.90
75913;BME280;64592;52.168;21.040;2022-12-29T11:04:45;99882.97;;;6.36;65.87
75913;BME280;64592;52.168;21.040;2022-12-29T11:09:54;99872.81;;;6.41;66.17
75913;BME280;64592;52.168;21.040;2022-12-29T11:15:02;99872.50;;;6.46;65.39
75913;BME280;64592;52.168;21.040;2022-12-29T11:20:28;99882.16;;;6.48;64.98
75913;BME280;64592;52.168;21.040;2022-12-29T11:25:31;99871.13;;;6.53;65.41
75913;BME280;64592;52.168;21.040;2022-12-29T11:30:33;99860.03;;;6.59;65.07
75913;BME280;64592;52.168;21.040;2022-12-29T11:35:38;99870.59;;;6.60;65.55
75913;BME280;64592;52.168;21.040;2022-12-29T11:40:42;99868.50;;;6.66;65.26
75913;BME280;64592;52.168;21.040;2022-12-29T11:45:45;99877.41;;;6.66;65.22
75913;BME280;64592;52.168;21.040;2022-12-29T11:50:52;99871.91;;;6.68;65.79
75913;BME280;64592;52.168;21.040;2022-12-29T11:55:57;99870.00;;;6.70;65.12
75913;BME280;64592;52.168;21.040;2022-12-29T12:01:02;99866.03;;;6.75;66.19
75913;BME280;64592;52.168;21.040;2022-12-29T12:06:12;99863.94;;;6.80;65.09
75913;BME280;64592;52.168;21.040;2022-12-29T12:11:20;99856.53;;;6.84;65.73
75913;BME280;64592;52.168;21.040;2022-12-29T12:16:27;99861.59;;;6.88;65.79
75913;BME280;64592;52.168;21.040;2022-12-29T12:21:34;99868.44;;;6.92;65.90
75913;BME280;64592;52.168;21.040;2022-12-29T12:26:47;99852.16;;;6.95;64.78
75913;BME280;64592;52.168;21.040;2022-12-29T12:31:56;99842.94;;;6.99;65.33
75913;BME280;64592;52.168;21.040;2022-12-29T12:37:14;99842.75;;;7.03;65.65
75913;BME280;64592;52.168;21.040;2022-12-29T12:42:32;99832.66;;;7.06;65.79
75913;BME280;64592;52.168;21.040;2022-12-29T12:47:52;99815.41;;;7.10;66.14
75913;BME280;64592;52.168;21.040;2022-12-29T12:53:19;99813.59;;;7.11;66.32
75913;BME280;64592;52.168;21.040;2022-12-29T12:58:32;99822.34;;;7.13;65.83
75913;BME280;64592;52.168;21.040;2022-12-29T13:03:50;99810.59;;;7.15;66.46
75913;BME280;64592;52.168;21.040;2022-12-29T13:09:08;99820.00;;;7.21;65.58
75913;BME280;64592;52.168;21.040;2022-12-29T13:14:25;99822.59;;;7.22;65.93
75913;BME280;64592;52.168;21.040;2022-12-29T13:19:34;99833.72;;;7.29;64.94
75913;BME280;64592;52.168;21.040;2022-12-29T13:24:47;99839.75;;;7.32;65.88
75913;BME280;64592;52.168;21.040;2022-12-29T13:29:56;99838.66;;;7.35;66.20
75913;BME280;64592;52.168;21.040;2022-12-29T13:35:12;99841.44;;;7.46;65.16
75913;BME280;64592;52.168;21.040;2022-12-29T13:40:22;99842.31;;;7.47;65.47
75913;BME280;64592;52.168;21.040;2022-12-29T13:45:29;99835.13;;;7.47;65.21
75913;BME280;64592;52.168;21.040;2022-12-29T13:50:36;99827.69;;;7.51;65.32
75913;BME280;64592;52.168;21.040;2022-12-29T13:55:44;99839.28;;;7.51;64.71
75913;BME280;64592;52.168;21.040;2022-12-29T14:00:53;99846.47;;;7.51;66.16
75913;BME280;64592;52.168;21.040;2022-12-29T14:06:12;99860.31;;;7.57;64.90
75913;BME280;64592;52.168;21.040;2022-12-29T14:11:17;99852.16;;;7.59;65.22
75913;BME280;64592;52.168;21.040;2022-12-29T14:16:30;99850.53;;;7.56;65.72
75913;BME280;64592;52.168;21.040;2022-12-29T14:21:32;99853.13;;;7.58;65.83
75913;BME280;64592;52.168;21.040;2022-12-29T14:26:35;99860.09;;;7.60;65.34
75913;BME280;64592;52.168;21.040;2022-12-29T14:31:38;99844.00;;;7.60;65.32
75913;BME280;64592;52.168;21.040;2022-12-29T14:36:43;99839.41;;;7.62;65.55
75913;BME280;64592;52.168;21.040;2022-12-29T14:41:59;99836.47;;;7.65;65.30
75913;BME280;64592;52.168;21.040;2022-12-29T14:47:05;99825.13;;;7.62;64.64
75913;BME280;64592;52.168;21.040;2022-12-29T14:52:15;99838.63;;;7.60;65.05
75913;BME280;64592;52.168;21.040;2022-12-29T14:57:27;99836.72;;;7.62;65.45
75913;BME280;64592;52.168;21.040;2022-12-29T15:02:36;99845.47;;;7.64;65.52
75913;BME280;64592;52.168;21.040;2022-12-29T15:07:40;99838.00;;;7.69;64.19
75913;BME280;64592;52.168;21.040;2022-12-29T15:12:46;99846.03;;;7.69;64.97
75913;BME280;64592;52.168;21.040;2022-12-29T15:17:50;99840.88;;;7.66;66.10
75913;BME280;64592;52.168;21.040;2022-12-29T15:22:55;99845.28;;;7.67;65.45
75913;BME280;64592;52.168;21.040;2022-12-29T15:28:01;99845.19;;;7.69;66.00
75913;BME280;64592;52.168;21.040;2022-12-29T15:33:17;99847.97;;;7.67;66.00
75913;BME280;64592;52.168;21.040;2022-12-29T15:38:22;99846.34;;;7.65;67.18
75913;BME280;64592;52.168;21.040;2022-12-29T15:43:32;99843.66;;;7.65;66.11
75913;BME280;64592;52.168;21.040;2022-12-29T15:48:38;99848.94;;;7.66;66.74
75913;BME280;64592;52.168;21.040;2022-12-29T15:53:40;99847.22;;;7.65;66.22
75913;BME280;64592;52.168;21.040;2022-12-29T15:58:43;99852.81;;;7.62;67.12
75913;BME280;64592;52.168;21.040;2022-12-29T16:03:49;99856.44;;;7.61;67.04
75913;BME280;64592;52.168;21.040;2022-12-29T16:08:56;99845.94;;;7.58;66.87
75913;BME280;64592;52.168;21.040;2022-12-29T16:13:58;99838.84;;;7.57;66.76
75913;BME280;64592;52.168;21.040;2022-12-29T16:19:04;99849.56;;;7.57;67.33
75913;BME280;64592;52.168;21.040;2022-12-29T16:24:14;99848.00;;;7.55;67.03
75913;BME280;64592;52.168;21.040;2022-12-29T16:29:19;99848.94;;;7.54;67.44
75913;BME280;64592;52.168;21.040;2022-12-29T16:34:28;99851.72;;;7.52;67.58
75913;BME280;64592;52.168;21.040;2022-12-29T16:39:32;99859.88;;;7.51;67.43
75913;BME280;64592;52.168;21.040;2022-12-29T16:44:34;99862.66;;;7.49;67.60
75913;BME280;64592;52.168;21.040;2022-12-29T16:49:39;99861.81;;;7.49;68.00
75913;BME280;64592;52.168;21.040;2022-12-29T16:54:41;99873.41;;;7.49;68.82
75913;BME280;64592;52.168;21.040;2022-12-29T16:59:44;99869.75;;;7.50;67.94
75913;BME280;64592;52.168;21.040;2022-12-29T17:04:47;99867.31;;;7.47;68.56
75913;BME280;64592;52.168;21.040;2022-12-29T17:09:50;99868.16;;;7.48;69.19
75913;BME280;64592;52.168;21.040;2022-12-29T17:14:54;99871.47;;;7.51;68.88
75913;BME280;64592;52.168;21.040;2022-12-29T17:20:02;99873.94;;;7.54;68.11
75913;BME280;64592;52.168;21.040;2022-12-29T17:25:04;99865.91;;;7.54;68.45
75913;BME280;64592;52.168;21.040;2022-12-29T17:30:11;99877.69;;;7.52;67.91
75913;BME280;64592;52.168;21.040;2022-12-29T17:35:15;99872.22;;;7.53;68.63
75913;BME280;64592;52.168;21.040;2022-12-29T17:40:18;99864.19;;;7.53;68.97
75913;BME280;64592;52.168;21.040;2022-12-29T17:45:22;99875.66;;;7.55;68.27
75913;BME280;64592;52.168;21.040;2022-12-29T17:50:28;99863.31;;;7.53;68.76
75913;BME280;64592;52.168;21.040;2022-12-29T17:55:30;99861.50;;;7.53;68.81
75913;BME280;64592;52.168;21.040;2022-12-29T18:00:32;99867.81;;;7.52;68.84
75913;BME280;64592;52.168;21.040;2022-12-29T18:05:35;99875.13;;;7.50;69.19
75913;BME280;64592;52.168;21.040;2022-12-29T18:10:37;99877.91;;;7.49;69.02
75913;BME280;64592;52.168;21.040;2022-12-29T18:15:39;99881.69;;;7.46;69.24
75913;BME280;64592;52.168;21.040;2022-12-29T18:20:44;99892.41;;;7.46;69.78
75913;BME280;64592;52.168;21.040;2022-12-29T18:25:49;99888.19;;;7.42;69.88
75913;BME280;64592;52.168;21.040;2022-12-29T18:30:53;99892.84;;;7.40;70.10
75913;BME280;64592;52.168;21.040;2022-12-29T18:35:58;99900.03;;;7.39;69.55
75913;BME280;64592;52.168;21.040;2022-12-29T18:41:00;99895.09;;;7.33;69.80
75913;BME280;64592;52.168;21.040;2022-12-29T18:46:02;99886.19;;;7.33;69.46
75913;BME280;64592;52.168;21.040;2022-12-29T18:51:06;99880.06;;;7.31;70.10
75913;BME280;64592;52.168;21.040;2022-12-29T18:56:08;99880.25;;;7.28;70.26
75913;BME280;64592;52.168;21.040;2022-12-29T19:01:18;99876.84;;;7.26;70.17
75913;BME280;64592;52.168;21.040;2022-12-29T19:06:21;99877.81;;;7.25;69.36
75913;BME280;64592;52.168;21.040;2022-12-29T19:11:23;99871.50;;;7.26;70.35
75913;BME280;64592;52.168;21.040;2022-12-29T19:16:25;99876.84;;;7.26;69.57
75913;BME280;64592;52.168;21.040;2022-12-29T19:21:28;99877.69;;;7.26;70.59
75913;BME280;64592;52.168;21.040;2022-12-29T19:26:32;99880.50;;;7.25;70.16
75913;BME280;64592;52.168;21.040;2022-12-29T19:31:36;99879.41;;;7.27;70.99
75913;BME280;64592;52.168;21.040;2022-12-29T19:36:39;99882.09;;;7.27;70.31
75913;BME280;64592;52.168;21.040;2022-12-29T19:41:41;99882.09;;;7.27;70.25
75913;BME280;64592;52.168;21.040;2022-12-29T19:46:43;99878.44;;;7.28;70.24
75913;BME280;64592;52.168;21.040;2022-12-29T19:51:46;99884.66;;;7.29;70.13
75913;BME280;64592;52.168;21.040;2022-12-29T19:56:48;99876.53;;;7.30;69.92
75913;BME280;64592;52.168;21.040;2022-12-29T20:01:49;99889.59;;;7.35;70.15
75913;BME280;64592;52.168;21.040;2022-12-29T20:06:52;99885.94;;;7.36;70.21
75913;BME280;64592;52.168;21.040;2022-12-29T20:11:54;99887.47;;;7.40;70.44
75913;BME280;64592;52.168;21.040;2022-12-29T20:16:56;99876.63;;;7.41;70.21
75913;BME280;64592;52.168;21.040;2022-12-29T20:22:00;99879.19;;;7.43;69.64
75913;BME280;64592;52.168;21.040;2022-12-29T20:27:02;99875.56;;;7.44;70.32
75913;BME280;64592;52.168;21.040;2022-12-29T20:32:04;99888.00;;;7.45;69.92
75913;BME280;64592;52.168;21.040;2022-12-29T20:37:08;99879.09;;;7.45;69.35
75913;BME280;64592;52.168;21.040;2022-12-29T20:42:10;99883.41;;;7.47;70.50
75913;BME280;64592;52.168;21.040;2022-12-29T20:47:12;99894.13;;;7.47;69.43
75913;BME280;64592;52.168;21.040;2022-12-29T20:52:15;99878.03;;;7.47;69.60
75913;BME280;64592;52.168;21.040;2022-12-29T20:57:17;99889.72;;;7.46;69.58
75913;BME280;64592;52.168;21.040;2022-12-29T21:02:20;99895.09;;;7.46;69.86
75913;BME280;64592;52.168;21.040;2022-12-29T21:07:23;99887.13;;;7.45;70.10
75913;BME280;64592;52.168;21.040;2022-12-29T21:12:25;99895.94;;;7.47;70.33
75913;BME280;64592;52.168;21.040;2022-12-29T21:17:26;99883.41;;;7.47;69.86
75913;BME280;64592;52.168;21.040;2022-12-29T21:22:30;99879.97;;;7.45;69.51
75913;BME280;64592;52.168;21.040;2022-12-29T21:27:32;99886.28;;;7.44;69.71
75913;BME280;64592;52.168;21.040;2022-12-29T21:32:33;99896.91;;;7.46;70.43
75913;BME280;64592;52.168;21.040;2022-12-29T21:37:37;99889.72;;;7.46;69.96
75913;BME280;64592;52.168;21.040;2022-12-29T21:42:39;99896.81;;;7.47;70.01
75913;BME280;64592;52.168;21.040;2022-12-29T21:47:41;99887.78;;;7.48;70.04
75913;BME280;64592;52.168;21.040;2022-12-29T21:53:01;99884.13;;;7.49;69.87
75913;BME280;64592;52.168;21.040;2022-12-29T21:58:03;99896.56;;;7.50;70.17
75913;BME280;64592;52.168;21.040;2022-12-29T22:03:22;99891.00;;;7.53;69.73
75913;BME280;64592;52.168;21.040;2022-12-29T22:08:42;99886.41;;;7.55;69.79
75913;BME280;64592;52.168;21.040;2022-12-29T22:14:02;99895.94;;;7.59;70.30
75913;BME280;64592;52.168;21.040;2022-12-29T22:19:05;99890.13;;;7.65;69.84
75913;BME280;64592;52.168;21.040;2022-12-29T22:24:09;99892.72;;;7.67;69.56
75913;BME280;64592;52.168;21.040;2022-12-29T22:29:11;99893.56;;;7.67;69.29
75913;BME280;64592;52.168;21.040;2022-12-29T22:34:13;99903.44;;;7.67;69.01
75913;BME280;64592;52.168;21.040;2022-12-29T22:39:16;99917.59;;;7.69;68.99
75913;BME280;64592;52.168;21.040;2022-12-29T22:44:18;99913.09;;;7.69;69.02
75913;BME280;64592;52.168;21.040;2022-12-29T22:49:19;99920.38;;;7.67;68.55
75913;BME280;64592;52.168;21.040;2022-12-29T22:54:22;99927.69;;;7.65;68.52
75913;BME280;64592;52.168;21.040;2022-12-29T22:59:24;99925.97;;;7.64;68.81
75913;BME280;64592;52.168;21.040;2022-12-29T23:04:26;99931.75;;;7.58;69.29
75913;BME280;64592;52.168;21.040;2022-12-29T23:09:29;99931.22;;;7.53;69.56
75913;BME280;64592;52.168;21.040;2022-12-29T23:14:31;99934.97;;;7.51;69.25
75913;BME280;64592;52.168;21.040;2022-12-29T23:19:32;99933.69;;;7.44;68.99
75913;BME280;64592;52.168;21.040;2022-12-29T23:24:35;99950.84;;;7.41;69.26
75913;BME280;64592;52.168;21.040;2022-12-29T23:29:37;99941.31;;;7.37;69.53
75913;BME280;64592;52.168;21.040;2022-12-29T23:34:39;99954.81;;;7.35;69.52
75913;BME280;64592;52.168;21.040;2022-12-29T23:39:42;99943.34;;;7.33;69.55
75913;BME280;64592;52.168;21.040;2022-12-29T23:44:43;99947.84;;;7.33;69.72
75913;BME280;64592;52.168;21.040;2022-12-29T23:49:45;99957.06;;;7.29;69.19
75913;BME280;64592;52.168;21.040;2022-12-29T23:54:48;99939.34;;;7.26;69.13
75913;BME280;64592;52.168;21.040;2022-12-29T23:59:50;99944.84;;;7.25;69.36
